sensor_id;sensor_type;location;lat;lon;timestamp;P1;durP1;ratioP1;P2;durP2;ratioP2
75508;SDS011;64214;47.250;11.332;2023-04-03T00:00:02;0.80;;;0.40;;
75508;SDS011;64214;47.250;11.332;2023-04-03T00:00:17;0.70;;;0.30;;
75508;SDS011;64214;47.250;11.332;2023-04-03T00:00:28;0.68;;;0.40;;
75508;SDS011;64214;47.250;11.332;2023-04-03T00:00:40;0.60;;;0.40;;
75508;SDS011;64214;47.250;11.332;2023-04-03T00:00:54;0.70;;;0.38;;
75508;SDS011;64214;47.250;11.332;2023-04-03T00:01:07;0.83;;;0.50;;
75508;SDS011;64214;47.250;11.332;2023-04-03T00:01:18;0.90;;;0.50;;
75508;SDS011;64214;47.250;11.332;2023-04-03T00:01:29;0.70;;;0.43;;
75508;SDS011;64214;47.250;11.332;2023-04-03T00:01:41;0.57;;;0.40;;
75508;SDS011;64214;47.250;11.332;2023-04-03T00:01:52;0.40;;;0.30;;
75508;SDS011;64214;47.250;11.332;2023-04-03T00:02:03;0.35;;;0.28;;
75508;SDS011;64214;47.250;11.332;2023-04-03T00:02:14;1.33;;;0.30;;
75508;SDS011;64214;47.250;11.332;2023-04-03T00:02:26;1.80;;;0.38;;
75508;SDS011;64214;47.250;11.332;2023-04-03T00:02:37;1.80;;;0.40;;
75508;SDS011;64214;47.250;11.332;2023-04-03T00:02:48;0.80;;;0.40;;
75508;SDS011;64214;47.250;11.332;2023-04-03T00:02:59;0.60;;;0.47;;
75508;SDS011;64214;47.250;11.332;2023-04-03T00:03:10;0.60;;;0.50;;
75508;SDS011;64214;47.250;11.332;2023-04-03T00:03:21;0.50;;;0.50;;
75508;SDS011;64214;47.250;11.332;2023-04-03T00:03:32;0.52;;;0.50;;
75508;SDS011;64214;47.250;11.332;2023-04-03T00:03:44;0.70;;;0.50;;
75508;SDS011;64214;47.250;11.332;2023-04-03T00:03:55;0.70;;;0.50;;
75508;SDS011;64214;47.250;11.332;2023-04-03T00:04:06;0.63;;;0.40;;
75508;SDS011;64214;47.250;11.332;2023-04-03T00:04:18;0.52;;;0.40;;
75508;SDS011;64214;47.250;11.332;2023-04-03T00:04:29;0.55;;;0.32;;
75508;SDS011;64214;47.250;11.332;2023-04-03T00:04:40;0.60;;;0.40;;
75508;SDS011;64214;47.250;11.332;2023-04-03T00:04:52;0.40;;;0.30;;
75508;SDS011;64214;47.250;11.332;2023-04-03T00:05:03;0.50;;;0.40;;
75508;SDS011;64214;47.250;11.332;2023-04-03T00:05:15;0.60;;;0.40;;
75508;SDS011;64214;47.250;11.332;2023-04-03T00:05:26;0.60;;;0.40;;
75508;SDS011;64214;47.250;11.332;2023-04-03T00:05:37;0.50;;;0.30;;
75508;SDS011;64214;47.250;11.332;2023-04-03T00:05:48;0.70;;;0.30;;
75508;SDS011;64214;47.250;11.332;2023-04-03T00:06:00;1.02;;;0.40;;
75508;SDS011;64214;47.250;11.332;2023-04-03T00:06:11;1.30;;;0.40;;
75508;SDS011;64214;47.250;11.332;2023-04-03T00:06:23;1.40;;;0.40;;
75508;SDS011;64214;47.250;11.332;2023-04-03T00:06:34;0.85;;;0.32;;
75508;SDS011;64214;47.250;11.332;2023-04-03T00:06:45;0.93;;;0.30;;
75508;SDS011;64214;47.250;11.332;2023-04-03T00:06:57;1.00;;;0.40;;
75508;SDS011;64214;47.250;11.332;2023-04-03T00:07:08;0.93;;;0.45;;
75508;SDS011;64214;47.250;11.332;2023-04-03T00:07:19;0.57;;;0.40;;
75508;SDS011;64214;47.250;11.332;2023-04-03T00:07:30;0.40;;;0.30;;
75508;SDS011;64214;47.250;11.332;2023-04-03T00:07:41;0.65;;;0.30;;
75508;SDS011;64214;47.250;11.332;2023-04-03T00:07:52;0.60;;;0.25;;
75508;SDS011;64214;47.250;11.332;2023-04-03T00:08:03;0.73;;;0.30;;
75508;SDS011;64214;47.250;11.332;2023-04-03T00:08:18;0.80;;;0.40;;
75508;SDS011;64214;47.250;11.332;2023-04-03T00:08:29;1.02;;;0.50;;
75508;SDS011;64214;47.250;11.332;2023-04-03T00:08:41;1.10;;;0.52;;
75508;SDS011;64214;47.250;11.332;2023-04-03T00:08:52;0.60;;;0.40;;
75508;SDS011;64214;47.250;11.332;2023-04-03T00:09:04;0.63;;;0.40;;
75508;SDS011;64214;47.250;11.332;2023-04-03T00:09:15;0.60;;;0.40;;
75508;SDS011;64214;47.250;11.332;2023-04-03T00:09:26;0.70;;;0.45;;
75508;SDS011;64214;47.250;11.332;2023-04-03T00:09:37;0.95;;;0.50;;
75508;SDS011;64214;47.250;11.332;2023-04-03T00:09:48;0.90;;;0.50;;
75508;SDS011;64214;47.250;11.332;2023-04-03T00:10:00;1.05;;;0.50;;
75508;SDS011;64214;47.250;11.332;2023-04-03T00:10:11;1.35;;;0.50;;
75508;SDS011;64214;47.250;11.332;2023-04-03T00:10:22;1.58;;;0.57;;
75508;SDS011;64214;47.250;11.332;2023-04-03T00:10:34;1.00;;;0.57;;
75508;SDS011;64214;47.250;11.332;2023-04-03T00:10:45;0.77;;;0.57;;
75508;SDS011;64214;47.250;11.332;2023-04-03T00:10:56;0.63;;;0.50;;
75508;SDS011;64214;47.250;11.332;2023-04-03T00:11:08;0.80;;;0.50;;
75508;SDS011;64214;47.250;11.332;2023-04-03T00:11:20;0.82;;;0.50;;
75508;SDS011;64214;47.250;11.332;2023-04-03T00:11:31;1.63;;;0.70;;
75508;SDS011;64214;47.250;11.332;2023-04-03T00:11:42;1.58;;;0.70;;
75508;SDS011;64214;47.250;11.332;2023-04-03T00:11:53;1.43;;;0.60;;
75508;SDS011;64214;47.250;11.332;2023-04-03T00:12:04;0.50;;;0.40;;
75508;SDS011;64214;47.250;11.332;2023-04-03T00:12:15;0.60;;;0.38;;
75508;SDS011;64214;47.250;11.332;2023-04-03T00:12:26;0.68;;;0.40;;
75508;SDS011;64214;47.250;11.332;2023-04-03T00:12:38;0.88;;;0.43;;
75508;SDS011;64214;47.250;11.332;2023-04-03T00:12:49;0.70;;;0.50;;
75508;SDS011;64214;47.250;11.332;2023-04-03T00:13:00;1.13;;;0.55;;
75508;SDS011;64214;47.250;11.332;2023-04-03T00:13:11;1.70;;;0.50;;
75508;SDS011;64214;47.250;11.332;2023-04-03T00:13:23;1.70;;;0.45;;
75508;SDS011;64214;47.250;11.332;2023-04-03T00:13:34;0.70;;;0.40;;
75508;SDS011;64214;47.250;11.332;2023-04-03T00:13:45;0.57;;;0.32;;
75508;SDS011;64214;47.250;11.332;2023-04-03T00:13:56;0.70;;;0.40;;
75508;SDS011;64214;47.250;11.332;2023-04-03T00:14:07;0.63;;;0.40;;
75508;SDS011;64214;47.250;11.332;2023-04-03T00:14:18;0.57;;;0.40;;
75508;SDS011;64214;47.250;11.332;2023-04-03T00:14:30;0.70;;;0.40;;
75508;SDS011;64214;47.250;11.332;2023-04-03T00:14:41;0.70;;;0.40;;
75508;SDS011;64214;47.250;11.332;2023-04-03T00:14:52;0.85;;;0.40;;
75508;SDS011;64214;47.250;11.332;2023-04-03T00:15:04;0.90;;;0.40;;
75508;SDS011;64214;47.250;11.332;2023-04-03T00:15:15;1.00;;;0.40;;
75508;SDS011;64214;47.250;11.332;2023-04-03T00:15:27;0.60;;;0.43;;
75508;SDS011;64214;47.250;11.332;2023-04-03T00:15:38;0.60;;;0.40;;
75508;SDS011;64214;47.250;11.332;2023-04-03T00:15:50;0.60;;;0.40;;
75508;SDS011;64214;47.250;11.332;2023-04-03T00:16:02;0.60;;;0.40;;
75508;SDS011;64214;47.250;11.332;2023-04-03T00:16:13;0.95;;;0.40;;
75508;SDS011;64214;47.250;11.332;2023-04-03T00:16:25;0.95;;;0.40;;
75508;SDS011;64214;47.250;11.332;2023-04-03T00:16:36;1.30;;;0.40;;
75508;SDS011;64214;47.250;11.332;2023-04-03T00:16:47;1.00;;;0.40;;
75508;SDS011;64214;47.250;11.332;2023-04-03T00:16:58;0.80;;;0.47;;
75508;SDS011;64214;47.250;11.332;2023-04-03T00:17:09;0.60;;;0.40;;
75508;SDS011;64214;47.250;11.332;2023-04-03T00:17:20;0.60;;;0.50;;
75508;SDS011;64214;47.250;11.332;2023-04-03T00:17:31;0.60;;;0.50;;
75508;SDS011;64214;47.250;11.332;2023-04-03T00:17:42;0.63;;;0.50;;
75508;SDS011;64214;47.250;11.332;2023-04-03T00:17:53;0.50;;;0.40;;
75508;SDS011;64214;47.250;11.332;2023-04-03T00:18:05;0.75;;;0.43;;
75508;SDS011;64214;47.250;11.332;2023-04-03T00:18:16;0.90;;;0.40;;
75508;SDS011;64214;47.250;11.332;2023-04-03T00:18:27;0.90;;;0.50;;
75508;SDS011;64214;47.250;11.332;2023-04-03T00:18:38;0.50;;;0.50;;
75508;SDS011;64214;47.250;11.332;2023-04-03T00:18:50;0.55;;;0.47;;
75508;SDS011;64214;47.250;11.332;2023-04-03T00:19:01;0.70;;;0.50;;
75508;SDS011;64214;47.250;11.332;2023-04-03T00:19:12;0.70;;;0.50;;
75508;SDS011;64214;47.250;11.332;2023-04-03T00:19:23;0.50;;;0.40;;
75508;SDS011;64214;47.250;11.332;2023-04-03T00:19:35;0.82;;;0.40;;
75508;SDS011;64214;47.250;11.332;2023-04-03T00:19:46;1.03;;;0.40;;
75508;SDS011;64214;47.250;11.332;2023-04-03T00:19:57;1.07;;;0.43;;
75508;SDS011;64214;47.250;11.332;2023-04-03T00:20:08;0.77;;;0.47;;
75508;SDS011;64214;47.250;11.332;2023-04-03T00:20:20;0.93;;;0.43;;
75508;SDS011;64214;47.250;11.332;2023-04-03T00:20:31;1.13;;;0.43;;
75508;SDS011;64214;47.250;11.332;2023-04-03T00:20:43;1.30;;;0.50;;
75508;SDS011;64214;47.250;11.332;2023-04-03T00:20:54;0.80;;;0.40;;
75508;SDS011;64214;47.250;11.332;2023-04-03T00:21:06;0.50;;;0.40;;
75508;SDS011;64214;47.250;11.332;2023-04-03T00:21:18;0.40;;;0.40;;
75508;SDS011;64214;47.250;11.332;2023-04-03T00:21:29;0.40;;;0.40;;
75508;SDS011;64214;47.250;11.332;2023-04-03T00:21:41;0.40;;;0.40;;
75508;SDS011;64214;47.250;11.332;2023-04-03T00:21:52;0.40;;;0.40;;
75508;SDS011;64214;47.250;11.332;2023-04-03T00:22:04;0.65;;;0.40;;
75508;SDS011;64214;47.250;11.332;2023-04-03T00:22:15;0.70;;;0.40;;
75508;SDS011;64214;47.250;11.332;2023-04-03T00:22:26;0.60;;;0.40;;
75508;SDS011;64214;47.250;11.332;2023-04-03T00:22:39;0.40;;;0.40;;
75508;SDS011;64214;47.250;11.332;2023-04-03T00:22:50;0.53;;;0.40;;
75508;SDS011;64214;47.250;11.332;2023-04-03T00:23:02;0.60;;;0.50;;
75508;SDS011;64214;47.250;11.332;2023-04-03T00:23:13;0.63;;;0.47;;
75508;SDS011;64214;47.250;11.332;2023-04-03T00:23:24;0.52;;;0.40;;
75508;SDS011;64214;47.250;11.332;2023-04-03T00:23:35;0.40;;;0.38;;
75508;SDS011;64214;47.250;11.332;2023-04-03T00:23:46;0.40;;;0.30;;
75508;SDS011;64214;47.250;11.332;2023-04-03T00:23:57;0.40;;;0.30;;
75508;SDS011;64214;47.250;11.332;2023-04-03T00:24:08;0.82;;;0.38;;
75508;SDS011;64214;47.250;11.332;2023-04-03T00:24:20;0.90;;;0.40;;
75508;SDS011;64214;47.250;11.332;2023-04-03T00:24:31;0.90;;;0.40;;
75508;SDS011;64214;47.250;11.332;2023-04-03T00:24:42;0.60;;;0.40;;
75508;SDS011;64214;47.250;11.332;2023-04-03T00:24:54;0.50;;;0.40;;
75508;SDS011;64214;47.250;11.332;2023-04-03T00:25:06;0.40;;;0.30;;
75508;SDS011;64214;47.250;11.332;2023-04-03T00:25:17;0.30;;;0.30;;
75508;SDS011;64214;47.250;11.332;2023-04-03T00:25:28;0.38;;;0.30;;
75508;SDS011;64214;47.250;11.332;2023-04-03T00:25:40;0.50;;;0.40;;
75508;SDS011;64214;47.250;11.332;2023-04-03T00:25:51;0.65;;;0.40;;
75508;SDS011;64214;47.250;11.332;2023-04-03T00:26:03;0.70;;;0.40;;
75508;SDS011;64214;47.250;11.332;2023-04-03T00:26:14;0.52;;;0.38;;
75508;SDS011;64214;47.250;11.332;2023-04-03T00:26:25;0.47;;;0.32;;
75508;SDS011;64214;47.250;11.332;2023-04-03T00:26:36;0.85;;;0.40;;
75508;SDS011;64214;47.250;11.332;2023-04-03T00:26:48;1.00;;;0.47;;
75508;SDS011;64214;47.250;11.332;2023-04-03T00:26:59;0.75;;;0.43;;
75508;SDS011;64214;47.250;11.332;2023-04-03T00:27:11;0.93;;;0.40;;
75508;SDS011;64214;47.250;11.332;2023-04-03T00:27:22;0.88;;;0.40;;
75508;SDS011;64214;47.250;11.332;2023-04-03T00:27:35;0.88;;;0.32;;
75508;SDS011;64214;47.250;11.332;2023-04-03T00:27:47;0.40;;;0.30;;
75508;SDS011;64214;47.250;11.332;2023-04-03T00:27:58;0.43;;;0.35;;
75508;SDS011;64214;47.250;11.332;2023-04-03T00:28:10;0.40;;;0.35;;
75508;SDS011;64214;47.250;11.332;2023-04-03T00:28:21;0.40;;;0.40;;
75508;SDS011;64214;47.250;11.332;2023-04-03T00:28:32;0.50;;;0.40;;
75508;SDS011;64214;47.250;11.332;2023-04-03T00:28:43;1.13;;;0.55;;
75508;SDS011;64214;47.250;11.332;2023-04-03T00:28:55;1.50;;;0.60;;
75508;SDS011;64214;47.250;11.332;2023-04-03T00:29:06;1.40;;;0.50;;
75508;SDS011;64214;47.250;11.332;2023-04-03T00:29:17;0.45;;;0.38;;
75508;SDS011;64214;47.250;11.332;2023-04-03T00:29:28;0.40;;;0.30;;
75508;SDS011;64214;47.250;11.332;2023-04-03T00:29:40;0.40;;;0.30;;
75508;SDS011;64214;47.250;11.332;2023-04-03T00:29:51;0.60;;;0.40;;
75508;SDS011;64214;47.250;11.332;2023-04-03T00:30:02;0.50;;;0.40;;
75508;SDS011;64214;47.250;11.332;2023-04-03T00:30:15;0.40;;;0.40;;
75508;SDS011;64214;47.250;11.332;2023-04-03T00:30:27;0.50;;;0.40;;
75508;SDS011;64214;47.250;11.332;2023-04-03T00:30:38;0.60;;;0.30;;
75508;SDS011;64214;47.250;11.332;2023-04-03T00:30:49;0.60;;;0.30;;
75508;SDS011;64214;47.250;11.332;2023-04-03T00:31:01;0.50;;;0.32;;
75508;SDS011;64214;47.250;11.332;2023-04-03T00:31:14;0.52;;;0.40;;
75508;SDS011;64214;47.250;11.332;2023-04-03T00:31:26;0.50;;;0.40;;
75508;SDS011;64214;47.250;11.332;2023-04-03T00:31:37;0.70;;;0.40;;
75508;SDS011;64214;47.250;11.332;2023-04-03T00:31:48;0.65;;;0.40;;
75508;SDS011;64214;47.250;11.332;2023-04-03T00:32:00;0.60;;;0.40;;
75508;SDS011;64214;47.250;11.332;2023-04-03T00:32:11;0.50;;;0.40;;
75508;SDS011;64214;47.250;11.332;2023-04-03T00:32:22;0.73;;;0.32;;
75508;SDS011;64214;47.250;11.332;2023-04-03T00:32:34;0.88;;;0.30;;
75508;SDS011;64214;47.250;11.332;2023-04-03T00:32:47;0.82;;;0.32;;
75508;SDS011;64214;47.250;11.332;2023-04-03T00:32:59;0.60;;;0.38;;
75508;SDS011;64214;47.250;11.332;2023-04-03T00:33:14;0.52;;;0.40;;
75508;SDS011;64214;47.250;11.332;2023-04-03T00:33:25;0.60;;;0.38;;
75508;SDS011;64214;47.250;11.332;2023-04-03T00:33:36;0.40;;;0.30;;
75508;SDS011;64214;47.250;11.332;2023-04-03T00:33:47;0.55;;;0.32;;
75508;SDS011;64214;47.250;11.332;2023-04-03T00:33:58;0.60;;;0.35;;
75508;SDS011;64214;47.250;11.332;2023-04-03T00:34:09;0.63;;;0.40;;
75508;SDS011;64214;47.250;11.332;2023-04-03T00:34:20;0.70;;;0.40;;
75508;SDS011;64214;47.250;11.332;2023-04-03T00:34:32;0.77;;;0.57;;
75508;SDS011;64214;47.250;11.332;2023-04-03T00:34:43;1.50;;;1.10;;
75508;SDS011;64214;47.250;11.332;2023-04-03T00:34:54;1.85;;;1.35;;
75508;SDS011;64214;47.250;11.332;2023-04-03T00:35:05;2.67;;;1.50;;
75508;SDS011;64214;47.250;11.332;2023-04-03T00:35:17;3.88;;;1.90;;
75508;SDS011;64214;47.250;11.332;2023-04-03T00:35:30;5.27;;;2.60;;
75508;SDS011;64214;47.250;11.332;2023-04-03T00:35:41;4.55;;;2.50;;
75508;SDS011;64214;47.250;11.332;2023-04-03T00:35:52;3.47;;;2.03;;
75508;SDS011;64214;47.250;11.332;2023-04-03T00:36:07;2.25;;;1.42;;
75508;SDS011;64214;47.250;11.332;2023-04-03T00:36:19;1.85;;;1.20;;
75508;SDS011;64214;47.250;11.332;2023-04-03T00:36:31;1.52;;;1.00;;
75508;SDS011;64214;47.250;11.332;2023-04-03T00:36:42;1.38;;;0.93;;
75508;SDS011;64214;47.250;11.332;2023-04-03T00:36:53;1.17;;;0.80;;
75508;SDS011;64214;47.250;11.332;2023-04-03T00:37:04;1.17;;;0.80;;
75508;SDS011;64214;47.250;11.332;2023-04-03T00:37:15;1.10;;;0.70;;
75508;SDS011;64214;47.250;11.332;2023-04-03T00:37:27;1.05;;;0.60;;
75508;SDS011;64214;47.250;11.332;2023-04-03T00:37:38;0.98;;;0.60;;
75508;SDS011;64214;47.250;11.332;2023-04-03T00:37:52;0.95;;;0.60;;
75508;SDS011;64214;47.250;11.332;2023-04-03T00:38:04;0.50;;;0.50;;
75508;SDS011;64214;47.250;11.332;2023-04-03T00:38:15;0.68;;;0.50;;
75508;SDS011;64214;47.250;11.332;2023-04-03T00:38:26;0.93;;;0.50;;
75508;SDS011;64214;47.250;11.332;2023-04-03T00:38:37;1.08;;;0.52;;
75508;SDS011;64214;47.250;11.332;2023-04-03T00:38:49;1.10;;;0.55;;
75508;SDS011;64214;47.250;11.332;2023-04-03T00:39:04;1.42;;;0.60;;
75508;SDS011;64214;47.250;11.332;2023-04-03T00:39:16;1.60;;;0.60;;
75508;SDS011;64214;47.250;11.332;2023-04-03T00:39:27;1.08;;;0.40;;
75508;SDS011;64214;47.250;11.332;2023-04-03T00:39:38;1.40;;;0.50;;
75508;SDS011;64214;47.250;11.332;2023-04-03T00:39:50;0.90;;;0.50;;
75508;SDS011;64214;47.250;11.332;2023-04-03T00:40:01;0.98;;;0.50;;
75508;SDS011;64214;47.250;11.332;2023-04-03T00:40:14;0.52;;;0.40;;
75508;SDS011;64214;47.250;11.332;2023-04-03T00:40:26;0.40;;;0.30;;
75508;SDS011;64214;47.250;11.332;2023-04-03T00:40:39;0.40;;;0.30;;
75508;SDS011;64214;47.250;11.332;2023-04-03T00:40:53;0.60;;;0.40;;
75508;SDS011;64214;47.250;11.332;2023-04-03T00:41:07;0.50;;;0.45;;
75508;SDS011;64214;47.250;11.332;2023-04-03T00:41:18;0.30;;;0.30;;
75508;SDS011;64214;47.250;11.332;2023-04-03T00:41:29;0.38;;;0.38;;
75508;SDS011;64214;47.250;11.332;2023-04-03T00:41:40;0.40;;;0.40;;
75508;SDS011;64214;47.250;11.332;2023-04-03T00:41:52;0.90;;;0.43;;
75508;SDS011;64214;47.250;11.332;2023-04-03T00:42:03;1.00;;;0.50;;
75508;SDS011;64214;47.250;11.332;2023-04-03T00:42:14;1.00;;;0.50;;
75508;SDS011;64214;47.250;11.332;2023-04-03T00:42:25;0.57;;;0.47;;
75508;SDS011;64214;47.250;11.332;2023-04-03T00:42:36;0.40;;;0.40;;
75508;SDS011;64214;47.250;11.332;2023-04-03T00:42:48;0.50;;;0.40;;
75508;SDS011;64214;47.250;11.332;2023-04-03T00:43:05;0.65;;;0.45;;
75508;SDS011;64214;47.250;11.332;2023-04-03T00:43:23;0.63;;;0.40;;
75508;SDS011;64214;47.250;11.332;2023-04-03T00:43:35;0.60;;;0.40;;
75508;SDS011;64214;47.250;11.332;2023-04-03T00:43:46;0.50;;;0.40;;
75508;SDS011;64214;47.250;11.332;2023-04-03T00:43:57;0.40;;;0.40;;
75508;SDS011;64214;47.250;11.332;2023-04-03T00:45:51;0.50;;;0.35;;
75508;SDS011;64214;47.250;11.332;2023-04-03T00:46:03;0.68;;;0.50;;
75508;SDS011;64214;47.250;11.332;2023-04-03T00:46:15;0.70;;;0.50;;
75508;SDS011;64214;47.250;11.332;2023-04-03T00:46:26;0.50;;;0.50;;
75508;SDS011;64214;47.250;11.332;2023-04-03T00:46:37;0.40;;;0.40;;
75508;SDS011;64214;47.250;11.332;2023-04-03T00:46:48;0.40;;;0.40;;
75508;SDS011;64214;47.250;11.332;2023-04-03T00:46:59;0.47;;;0.40;;
75508;SDS011;64214;47.250;11.332;2023-04-03T00:47:11;0.60;;;0.40;;
75508;SDS011;64214;47.250;11.332;2023-04-03T00:47:25;0.68;;;0.40;;
75508;SDS011;64214;47.250;11.332;2023-04-03T00:47:37;0.57;;;0.40;;
75508;SDS011;64214;47.250;11.332;2023-04-03T00:47:50;0.45;;;0.30;;
75508;SDS011;64214;47.250;11.332;2023-04-03T00:48:02;0.82;;;0.30;;
75508;SDS011;64214;47.250;11.332;2023-04-03T00:48:26;0.90;;;0.30;;
75508;SDS011;64214;47.250;11.332;2023-04-03T00:48:42;0.95;;;0.50;;
75508;SDS011;64214;47.250;11.332;2023-04-03T00:48:58;1.02;;;0.50;;
75508;SDS011;64214;47.250;11.332;2023-04-03T00:49:09;0.70;;;0.47;;
75508;SDS011;64214;47.250;11.332;2023-04-03T00:49:20;0.77;;;0.50;;
75508;SDS011;64214;47.250;11.332;2023-04-03T00:49:31;0.80;;;0.50;;
75508;SDS011;64214;47.250;11.332;2023-04-03T00:49:43;0.73;;;0.50;;
75508;SDS011;64214;47.250;11.332;2023-04-03T00:49:54;0.90;;;0.60;;
75508;SDS011;64214;47.250;11.332;2023-04-03T00:50:06;0.73;;;0.47;;
75508;SDS011;64214;47.250;11.332;2023-04-03T00:50:18;0.80;;;0.40;;
75508;SDS011;64214;47.250;11.332;2023-04-03T00:50:29;0.60;;;0.30;;
75508;SDS011;64214;47.250;11.332;2023-04-03T00:50:41;0.60;;;0.40;;
75508;SDS011;64214;47.250;11.332;2023-04-03T00:50:53;0.40;;;0.40;;
75508;SDS011;64214;47.250;11.332;2023-04-03T00:51:06;0.60;;;0.40;;
75508;SDS011;64214;47.250;11.332;2023-04-03T00:51:22;0.88;;;0.50;;
75508;SDS011;64214;47.250;11.332;2023-04-03T00:51:35;0.80;;;0.40;;
75508;SDS011;64214;47.250;11.332;2023-04-03T00:51:46;0.60;;;0.40;;
75508;SDS011;64214;47.250;11.332;2023-04-03T00:51:57;0.60;;;0.40;;
75508;SDS011;64214;47.250;11.332;2023-04-03T00:52:10;0.50;;;0.40;;
75508;SDS011;64214;47.250;11.332;2023-04-03T00:52:25;0.50;;;0.40;;
75508;SDS011;64214;47.250;11.332;2023-04-03T00:52:39;0.50;;;0.40;;
75508;SDS011;64214;47.250;11.332;2023-04-03T00:52:50;0.50;;;0.40;;
75508;SDS011;64214;47.250;11.332;2023-04-03T00:53:01;0.55;;;0.40;;
75508;SDS011;64214;47.250;11.332;2023-04-03T00:53:16;0.70;;;0.40;;
75508;SDS011;64214;47.250;11.332;2023-04-03T00:53:30;0.70;;;0.40;;
75508;SDS011;64214;47.250;11.332;2023-04-03T00:53:46;0.52;;;0.40;;
75508;SDS011;64214;47.250;11.332;2023-04-03T00:54:01;0.50;;;0.30;;
75508;SDS011;64214;47.250;11.332;2023-04-03T00:54:14;0.45;;;0.30;;
75508;SDS011;64214;47.250;11.332;2023-04-03T00:54:25;0.70;;;0.40;;
75508;SDS011;64214;47.250;11.332;2023-04-03T00:54:37;0.70;;;0.40;;
75508;SDS011;64214;47.250;11.332;2023-04-03T00:54:48;0.60;;;0.40;;
75508;SDS011;64214;47.250;11.332;2023-04-03T00:55:02;0.55;;;0.38;;
75508;SDS011;64214;47.250;11.332;2023-04-03T00:55:15;0.50;;;0.32;;
75508;SDS011;64214;47.250;11.332;2023-04-03T00:55:27;0.40;;;0.30;;
75508;SDS011;64214;47.250;11.332;2023-04-03T00:55:38;0.50;;;0.32;;
75508;SDS011;64214;47.250;11.332;2023-04-03T00:55:50;0.50;;;0.40;;
75508;SDS011;64214;47.250;11.332;2023-04-03T00:56:01;0.55;;;0.40;;
75508;SDS011;64214;47.250;11.332;2023-04-03T00:56:16;0.50;;;0.40;;
75508;SDS011;64214;47.250;11.332;2023-04-03T00:56:29;0.50;;;0.50;;
75508;SDS011;64214;47.250;11.332;2023-04-03T00:56:41;0.60;;;0.50;;
75508;SDS011;64214;47.250;11.332;2023-04-03T00:56:52;0.50;;;0.45;;
75508;SDS011;64214;47.250;11.332;2023-04-03T00:57:04;0.80;;;0.40;;
75508;SDS011;64214;47.250;11.332;2023-04-03T00:57:17;0.82;;;0.30;;
75508;SDS011;64214;47.250;11.332;2023-04-03T00:57:28;1.05;;;0.38;;
75508;SDS011;64214;47.250;11.332;2023-04-03T00:57:41;0.90;;;0.40;;
75508;SDS011;64214;47.250;11.332;2023-04-03T00:57:52;0.85;;;0.40;;
75508;SDS011;64214;47.250;11.332;2023-04-03T00:58:04;1.00;;;0.40;;
75508;SDS011;64214;47.250;11.332;2023-04-03T00:58:17;0.75;;;0.40;;
75508;SDS011;64214;47.250;11.332;2023-04-03T00:58:33;0.55;;;0.30;;
75508;SDS011;64214;47.250;11.332;2023-04-03T00:58:48;0.57;;;0.40;;
75508;SDS011;64214;47.250;11.332;2023-04-03T00:59:13;0.60;;;0.43;;
75508;SDS011;64214;47.250;11.332;2023-04-03T00:59:28;0.43;;;0.30;;
75508;SDS011;64214;47.250;11.332;2023-04-03T00:59:42;0.60;;;0.30;;
75508;SDS011;64214;47.250;11.332;2023-04-03T01:00:00;0.70;;;0.40;;
75508;SDS011;64214;47.250;11.332;2023-04-03T01:00:16;0.60;;;0.40;;
75508;SDS011;64214;47.250;11.332;2023-04-03T01:00:28;0.60;;;0.40;;
75508;SDS011;64214;47.250;11.332;2023-04-03T01:00:40;0.50;;;0.40;;
75508;SDS011;64214;47.250;11.332;2023-04-03T01:00:54;0.40;;;0.30;;
75508;SDS011;64214;47.250;11.332;2023-04-03T01:01:10;0.50;;;0.40;;
75508;SDS011;64214;47.250;11.332;2023-04-03T01:01:25;0.60;;;0.40;;
75508;SDS011;64214;47.250;11.332;2023-04-03T01:01:37;0.70;;;0.45;;
75508;SDS011;64214;47.250;11.332;2023-04-03T01:01:49;0.77;;;0.40;;
75508;SDS011;64214;47.250;11.332;2023-04-03T01:02:00;1.00;;;0.45;;
75508;SDS011;64214;47.250;11.332;2023-04-03T01:02:11;1.00;;;0.43;;
75508;SDS011;64214;47.250;11.332;2023-04-03T01:02:23;0.60;;;0.40;;
75508;SDS011;64214;47.250;11.332;2023-04-03T01:02:36;0.50;;;0.40;;
75508;SDS011;64214;47.250;11.332;2023-04-03T01:02:47;0.50;;;0.40;;
75508;SDS011;64214;47.250;11.332;2023-04-03T01:03:00;0.50;;;0.40;;
75508;SDS011;64214;47.250;11.332;2023-04-03T01:03:11;0.50;;;0.40;;
75508;SDS011;64214;47.250;11.332;2023-04-03T01:03:24;0.60;;;0.50;;
75508;SDS011;64214;47.250;11.332;2023-04-03T01:03:36;1.00;;;0.43;;
75508;SDS011;64214;47.250;11.332;2023-04-03T01:03:49;1.05;;;0.40;;
75508;SDS011;64214;47.250;11.332;2023-04-03T01:04:01;0.60;;;0.38;;
75508;SDS011;64214;47.250;11.332;2023-04-03T01:04:42;0.70;;;0.47;;
75508;SDS011;64214;47.250;11.332;2023-04-03T01:04:53;0.70;;;0.50;;
75508;SDS011;64214;47.250;11.332;2023-04-03T01:05:04;0.70;;;0.40;;
75508;SDS011;64214;47.250;11.332;2023-04-03T01:05:17;0.55;;;0.40;;
75508;SDS011;64214;47.250;11.332;2023-04-03T01:05:28;0.80;;;0.40;;
75508;SDS011;64214;47.250;11.332;2023-04-03T01:05:40;0.90;;;0.40;;
75508;SDS011;64214;47.250;11.332;2023-04-03T01:05:51;0.77;;;0.38;;
75508;SDS011;64214;47.250;11.332;2023-04-03T01:06:02;0.60;;;0.40;;
75508;SDS011;64214;47.250;11.332;2023-04-03T01:06:13;0.60;;;0.40;;
75508;SDS011;64214;47.250;11.332;2023-04-03T01:06:28;0.45;;;0.30;;
75508;SDS011;64214;47.250;11.332;2023-04-03T01:06:49;0.50;;;0.40;;
75508;SDS011;64214;47.250;11.332;2023-04-03T01:07:02;0.57;;;0.40;;
75508;SDS011;64214;47.250;11.332;2023-04-03T01:07:17;0.70;;;0.40;;
75508;SDS011;64214;47.250;11.332;2023-04-03T01:07:31;0.67;;;0.40;;
75508;SDS011;64214;47.250;11.332;2023-04-03T01:07:44;0.57;;;0.40;;
75508;SDS011;64214;47.250;11.332;2023-04-03T01:07:55;0.75;;;0.40;;
75508;SDS011;64214;47.250;11.332;2023-04-03T01:08:07;0.90;;;0.57;;
75508;SDS011;64214;47.250;11.332;2023-04-03T01:08:18;1.00;;;0.50;;
75508;SDS011;64214;47.250;11.332;2023-04-03T01:08:30;0.77;;;0.40;;
75508;SDS011;64214;47.250;11.332;2023-04-03T01:08:41;0.50;;;0.38;;
75508;SDS011;64214;47.250;11.332;2023-04-03T01:08:52;0.50;;;0.40;;
75508;SDS011;64214;47.250;11.332;2023-04-03T01:09:04;0.40;;;0.40;;
75508;SDS011;64214;47.250;11.332;2023-04-03T01:09:15;0.47;;;0.40;;
75508;SDS011;64214;47.250;11.332;2023-04-03T01:09:27;0.60;;;0.40;;
75508;SDS011;64214;47.250;11.332;2023-04-03T01:09:39;0.60;;;0.43;;
75508;SDS011;64214;47.250;11.332;2023-04-03T01:09:52;0.50;;;0.45;;
75508;SDS011;64214;47.250;11.332;2023-04-03T01:10:09;0.80;;;0.50;;
75508;SDS011;64214;47.250;11.332;2023-04-03T01:10:24;0.80;;;0.40;;
75508;SDS011;64214;47.250;11.332;2023-04-03T01:10:36;0.90;;;0.40;;
75508;SDS011;64214;47.250;11.332;2023-04-03T01:10:47;0.90;;;0.47;;
75508;SDS011;64214;47.250;11.332;2023-04-03T01:10:59;1.10;;;0.55;;
75508;SDS011;64214;47.250;11.332;2023-04-03T01:11:11;0.77;;;0.50;;
75508;SDS011;64214;47.250;11.332;2023-04-03T01:11:22;0.80;;;0.50;;
75508;SDS011;64214;47.250;11.332;2023-04-03T01:11:34;1.05;;;0.40;;
75508;SDS011;64214;47.250;11.332;2023-04-03T01:11:46;0.85;;;0.40;;
75508;SDS011;64214;47.250;11.332;2023-04-03T01:12:16;0.90;;;0.38;;
75508;SDS011;64214;47.250;11.332;2023-04-03T01:12:33;0.60;;;0.40;;
75508;SDS011;64214;47.250;11.332;2023-04-03T01:12:47;0.60;;;0.40;;
75508;SDS011;64214;47.250;11.332;2023-04-03T01:13:00;0.55;;;0.40;;
75508;SDS011;64214;47.250;11.332;2023-04-03T01:13:36;0.50;;;0.40;;
75508;SDS011;64214;47.250;11.332;2023-04-03T01:13:50;0.45;;;0.40;;
75508;SDS011;64214;47.250;11.332;2023-04-03T01:14:01;0.60;;;0.40;;